createdAt,value
2023-01-04T00:00:08.868Z,101717.83
2023-01-04T00:03:00.735Z,101712.80
2023-01-04T00:05:32.934Z,101715.05
2023-01-04T00:08:04.911Z,101710.58
2023-01-04T00:10:36.704Z,101713.96
2023-01-04T00:13:08.416Z,101711.98
2023-01-04T00:15:40.103Z,101712.45
2023-01-04T00:18:11.885Z,101704.70
2023-01-04T00:20:43.965Z,101695.42
2023-01-04T00:23:16.062Z,101696.23
2023-01-04T00:25:48.050Z,101688.55
2023-01-04T00:28:20.151Z,101689.58
2023-01-04T00:30:51.949Z,101690.84
2023-01-04T00:33:23.918Z,101690.66
2023-01-04T00:35:55.608Z,101689.55
2023-01-04T00:38:27.356Z,101694.79
2023-01-04T00:40:59.639Z,101690.86
2023-01-04T00:43:31.529Z,101688.06
2023-01-04T00:46:03.477Z,101685.77
2023-01-04T00:48:40.111Z,101686.46
2023-01-04T00:51:12.477Z,101685.30
2023-01-04T00:53:44.411Z,101683.12
2023-01-04T00:56:16.235Z,101683.61
2023-01-04T00:58:48.126Z,101683.08
2023-01-04T01:01:19.935Z,101676.70
2023-01-04T01:03:55.682Z,101674.42
2023-01-04T01:06:28.383Z,101673.54
2023-01-04T01:08:58.643Z,101678.23
2023-01-04T01:11:31.350Z,101677.80
2023-01-04T01:14:01.567Z,101669.19
2023-01-04T01:19:25.782Z,101670.11
2023-01-04T01:21:58.514Z,101667.03
2023-01-04T01:24:30.975Z,101664.55
2023-01-04T01:27:02.808Z,101666.69
2023-01-04T01:29:35.037Z,101664.30
2023-01-04T01:32:07.194Z,101660.79
2023-01-04T01:34:39.155Z,101655.15
2023-01-04T01:37:10.858Z,101649.55
2023-01-04T01:39:42.704Z,101645.56
2023-01-04T01:42:23.336Z,101641.88
2023-01-04T01:45:11.216Z,101637.39
2023-01-04T01:47:47.120Z,101634.95
2023-01-04T01:50:27.373Z,101628.60
2023-01-04T01:53:01.620Z,101625.34
2023-01-04T01:55:36.508Z,101615.04
2023-01-04T01:58:12.273Z,101611.31
2023-01-04T02:00:44.015Z,101611.29
2023-01-04T02:03:20.519Z,101606.60
2023-01-04T02:05:55.809Z,101608.93
2023-01-04T02:08:28.432Z,101601.06
2023-01-04T02:10:58.859Z,101582.59
2023-01-04T02:13:47.872Z,101578.02
2023-01-04T02:16:28.412Z,101583.13
2023-01-04T02:19:07.910Z,101573.72
2023-01-04T02:21:59.258Z,101578.69
2023-01-04T02:24:48.759Z,101578.80
2023-01-04T02:27:42.553Z,101579.14
2023-01-04T02:30:40.756Z,101577.92
2023-01-04T02:33:31.373Z,101576.18
2023-01-04T02:36:12.147Z,101558.46
2023-01-04T02:38:53.146Z,101560.10
2023-01-04T02:41:32.971Z,101556.88
2023-01-04T02:44:31.009Z,101550.64
2023-01-04T02:47:07.569Z,101546.96
2023-01-04T02:50:02.444Z,101541.81
2023-01-04T02:52:36.697Z,101539.38
2023-01-04T02:55:09.916Z,101533.75
2023-01-04T02:57:53.516Z,101525.67
2023-01-04T03:01:02.881Z,101517.63
2023-01-04T03:04:05.614Z,101528.38
2023-01-04T03:06:47.387Z,101520.67
2023-01-04T03:09:25.020Z,101509.46
2023-01-04T03:12:19.076Z,101512.42
2023-01-04T03:15:00.279Z,101504.06
2023-01-04T03:17:37.426Z,101492.46
2023-01-04T03:20:12.381Z,101485.24
2023-01-04T03:23:05.983Z,101486.21
2023-01-04T03:26:00.351Z,101481.13
2023-01-04T03:28:54.387Z,101481.81
2023-01-04T03:31:49.446Z,101472.73
2023-01-04T03:34:40.152Z,101466.48
2023-01-04T03:37:19.509Z,101465.67
2023-01-04T03:40:31.632Z,101469.52
2023-01-04T03:43:27.695Z,101469.14
2023-01-04T03:46:22.487Z,101461.50
2023-01-04T03:48:59.161Z,101466.55
2023-01-04T03:51:36.365Z,101481.41
2023-01-04T03:54:12.831Z,101475.02
2023-01-04T03:56:46.717Z,101472.48
2023-01-04T03:59:18.935Z,101463.73
2023-01-04T04:01:51.303Z,101475.67
2023-01-04T04:04:41.239Z,101476.80
2023-01-04T04:07:31.144Z,101478.66
2023-01-04T04:10:02.896Z,101474.64
2023-01-04T04:12:34.626Z,101473.98
2023-01-04T04:15:07.684Z,101470.30
2023-01-04T04:17:39.710Z,101462.64
2023-01-04T04:20:13.630Z,101457.80
2023-01-04T04:22:45.880Z,101437.52
2023-01-04T04:25:17.880Z,101435.88
2023-01-04T04:27:50.614Z,101422.52
2023-01-04T04:30:22.578Z,101415.13
2023-01-04T04:32:54.422Z,101404.27
2023-01-04T04:35:26.129Z,101394.76
2023-01-04T04:37:57.853Z,101384.46
2023-01-04T04:40:47.259Z,101372.80
2023-01-04T04:43:19.048Z,101363.30
2023-01-04T04:45:51.381Z,101360.06
2023-01-04T04:48:21.892Z,101354.70
2023-01-04T04:50:53.937Z,101351.09
2023-01-04T04:53:25.697Z,101344.58
2023-01-04T04:55:57.478Z,101334.78
2023-01-04T04:58:29.936Z,101324.39
2023-01-04T05:01:01.931Z,101328.52
2023-01-04T05:03:34.567Z,101324.14
2023-01-04T05:06:05.398Z,101324.64
2023-01-04T05:08:37.244Z,101320.20
2023-01-04T05:11:11.187Z,101325.86
2023-01-04T05:13:43.721Z,101323.73
2023-01-04T05:16:15.508Z,101315.42
2023-01-04T05:18:47.264Z,101309.88
2023-01-04T05:21:20.442Z,101304.83
2023-01-04T05:23:52.600Z,101300.14
2023-01-04T05:26:24.649Z,101300.51
2023-01-04T05:28:57.238Z,101298.90
2023-01-04T05:31:29.326Z,101299.45
2023-01-04T05:34:01.434Z,101294.63
2023-01-04T05:36:33.560Z,101288.01
2023-01-04T05:39:05.315Z,101282.84
2023-01-04T05:41:54.738Z,101280.54
2023-01-04T05:44:26.407Z,101283.90
2023-01-04T05:46:58.345Z,101282.82
2023-01-04T05:49:30.138Z,101279.59
2023-01-04T05:52:01.838Z,101282.23
2023-01-04T05:54:33.613Z,101280.98
2023-01-04T05:57:05.403Z,101270.95
2023-01-04T05:59:41.959Z,101264.13
2023-01-04T06:02:19.800Z,101258.01
2023-01-04T06:04:58.440Z,101245.63
2023-01-04T06:07:31.224Z,101239.73
2023-01-04T06:10:03.012Z,101230.52
2023-01-04T06:12:35.144Z,101229.09
2023-01-04T06:15:08.948Z,101222.66
2023-01-04T06:17:41.437Z,101216.56
2023-01-04T06:20:14.123Z,101213.82
2023-01-04T06:22:44.637Z,101209.33
2023-01-04T06:25:17.304Z,101198.61
2023-01-04T06:27:47.545Z,101196.61
2023-01-04T06:30:19.690Z,101195.48
2023-01-04T06:32:51.567Z,101188.54
2023-01-04T06:35:23.405Z,101186.79
2023-01-04T06:37:55.179Z,101183.73
2023-01-04T06:40:27.006Z,101175.14
2023-01-04T06:42:58.817Z,101168.83
2023-01-04T06:45:30.762Z,101165.78
2023-01-04T06:48:08.725Z,101162.73
2023-01-04T06:50:40.943Z,101158.84
2023-01-04T06:53:12.772Z,101162.08
2023-01-04T06:55:46.144Z,101163.85
2023-01-04T06:58:18.221Z,101164.91
2023-01-04T07:00:51.957Z,101170.61
2023-01-04T07:03:24.409Z,101170.05
2023-01-04T07:05:56.491Z,101167.08
2023-01-04T07:08:28.347Z,101154.18
2023-01-04T07:11:00.851Z,101147.54
2023-01-04T07:13:32.789Z,101142.76
2023-01-04T07:16:04.813Z,101137.38
2023-01-04T07:18:37.587Z,101138.84
2023-01-04T07:21:09.593Z,101129.54
2023-01-04T07:23:41.552Z,101117.92
2023-01-04T07:26:13.255Z,101109.16
2023-01-04T07:29:03.002Z,101105.44
2023-01-04T07:31:35.042Z,101102.10
2023-01-04T07:34:07.400Z,101106.75
2023-01-04T07:36:40.283Z,101101.98
2023-01-04T07:39:12.857Z,101101.97
2023-01-04T07:41:45.295Z,101092.74
2023-01-04T07:44:19.533Z,101088.34
2023-01-04T07:46:51.370Z,101077.80
2023-01-04T07:49:23.348Z,101075.33
2023-01-04T07:51:55.048Z,101074.81
2023-01-04T07:54:26.840Z,101072.70
2023-01-04T07:56:58.656Z,101083.13
2023-01-04T07:59:30.433Z,101072.99
2023-01-04T08:02:03.008Z,101064.23
2023-01-04T08:04:35.626Z,101058.40
2023-01-04T08:07:08.078Z,101047.87
2023-01-04T08:09:40.021Z,101043.60
2023-01-04T08:12:11.708Z,101033.08
2023-01-04T08:14:43.430Z,101023.64
2023-01-04T08:17:15.185Z,101021.39
2023-01-04T08:19:47.507Z,101012.25
2023-01-04T08:22:19.365Z,101001.52
2023-01-04T08:24:51.228Z,100998.32
2023-01-04T08:27:23.134Z,100996.75
2023-01-04T08:29:54.933Z,100990.31
2023-01-04T08:32:27.214Z,100980.12
2023-01-04T08:34:59.723Z,100971.05
2023-01-04T08:37:32.056Z,100966.09
2023-01-04T08:40:03.823Z,100966.27
2023-01-04T08:42:35.777Z,100957.70
2023-01-04T08:45:09.489Z,100956.49
2023-01-04T08:47:41.229Z,100953.83
2023-01-04T08:50:14.491Z,100942.73
2023-01-04T08:52:46.369Z,100932.88
2023-01-04T08:55:23.156Z,100933.46
2023-01-04T08:57:55.642Z,100940.26
2023-01-04T09:00:27.546Z,100929.76
2023-01-04T09:02:59.732Z,100924.52
2023-01-04T09:05:33.259Z,100917.92
2023-01-04T09:08:05.423Z,100907.75
2023-01-04T09:10:42.308Z,100901.87
2023-01-04T09:13:14.279Z,100896.51
2023-01-04T09:15:46.373Z,100892.94
2023-01-04T09:18:30.812Z,100886.15
2023-01-04T09:21:08.382Z,100872.20
2023-01-04T09:23:40.678Z,100858.58
2023-01-04T09:26:15.132Z,100859.48
2023-01-04T09:28:47.281Z,100855.89
2023-01-04T09:31:22.644Z,100855.90
2023-01-04T09:36:48.622Z,100842.51
2023-01-04T09:39:24.001Z,100833.57
2023-01-04T09:41:59.917Z,100830.70
2023-01-04T09:45:21.087Z,100813.86
2023-01-04T09:47:46.009Z,100795.39
2023-01-04T09:50:22.203Z,100784.81
2023-01-04T09:53:03.670Z,100773.88
2023-01-04T09:55:41.220Z,100767.06
2023-01-04T09:58:26.803Z,100764.73
2023-01-04T10:01:04.801Z,100753.79
2023-01-04T10:03:39.121Z,100747.87
2023-01-04T10:06:15.622Z,100742.48
2023-01-04T10:08:47.945Z,100734.60
2023-01-04T10:11:34.735Z,100728.69
2023-01-04T10:14:39.626Z,100723.84
2023-01-04T10:17:44.410Z,100716.66
2023-01-04T10:23:53.560Z,100693.88
2023-01-04T10:26:32.518Z,100684.53
2023-01-04T10:29:27.134Z,100679.86
2023-01-04T10:32:04.350Z,100676.27
2023-01-04T10:34:42.702Z,100670.70
2023-01-04T10:37:18.839Z,100664.41
2023-01-04T10:39:55.879Z,100663.86
2023-01-04T10:42:35.370Z,100653.98
2023-01-04T10:45:16.737Z,100648.06
2023-01-04T10:48:00.028Z,100646.06
2023-01-04T10:50:38.344Z,100638.17
2023-01-04T10:53:17.915Z,100634.22
2023-01-04T10:56:25.349Z,100631.52
2023-01-04T10:58:53.031Z,100625.02
2023-01-04T11:01:30.638Z,100624.11
2023-01-04T11:04:10.402Z,100617.27
2023-01-04T11:06:47.946Z,100612.25
2023-01-04T11:09:25.714Z,100605.92
2023-01-04T11:11:59.152Z,100597.65
2023-01-04T11:14:37.047Z,100599.08
2023-01-04T11:17:12.413Z,100590.85
2023-01-04T11:19:45.506Z,100587.41
2023-01-04T11:22:25.245Z,100586.66
2023-01-04T11:25:34.402Z,100583.45
2023-01-04T11:27:58.540Z,100580.20
2023-01-04T11:30:41.234Z,100573.06
2023-01-04T11:33:18.249Z,100568.59
2023-01-04T11:35:52.327Z,100552.08
2023-01-04T11:38:25.786Z,100540.61
2023-01-04T11:41:01.750Z,100537.73
2023-01-04T11:43:34.966Z,100522.86
2023-01-04T11:46:08.617Z,100519.52
2023-01-04T11:48:43.935Z,100508.35
2023-01-04T11:51:39.391Z,100497.05
2023-01-04T11:54:21.457Z,100484.52
2023-01-04T11:57:12.134Z,100474.30
2023-01-04T11:59:44.360Z,100467.00
2023-01-04T12:08:29.585Z,100431.33
2023-01-04T12:11:03.602Z,100426.86
2023-01-04T12:13:36.370Z,100424.69
2023-01-04T12:16:13.040Z,100413.52
2023-01-04T12:18:46.626Z,100410.32
2023-01-04T12:21:21.352Z,100405.86
2023-01-04T12:23:55.054Z,100392.55
2023-01-04T12:26:27.206Z,100381.61
2023-01-04T12:29:29.708Z,100376.88
2023-01-04T12:32:32.142Z,100371.52
2023-01-04T12:35:04.186Z,100362.76
2023-01-04T12:37:49.706Z,100356.88
2023-01-04T12:40:55.546Z,100353.07
2023-01-04T12:43:43.100Z,100349.43
2023-01-04T12:47:00.826Z,100337.80
2023-01-04T12:50:00.001Z,100331.89
2023-01-04T12:53:28.346Z,100328.98
2023-01-04T12:56:01.583Z,100316.42
2023-01-04T12:59:24.778Z,100307.02
2023-01-04T13:02:20.637Z,100297.99
2023-01-04T13:05:09.673Z,100291.48
2023-01-04T13:07:50.344Z,100292.38
2023-01-04T13:10:39.599Z,100289.24
2023-01-04T13:13:24.263Z,100280.59
2023-01-04T13:16:08.059Z,100281.46
2023-01-04T13:18:43.663Z,100273.05
2023-01-04T13:21:18.119Z,100270.30
2023-01-04T13:23:53.783Z,100261.26
2023-01-04T13:26:48.512Z,100257.18
2023-01-04T13:29:24.015Z,100248.02
2023-01-04T13:31:59.777Z,100238.64
2023-01-04T13:34:34.737Z,100235.59
2023-01-04T13:37:15.497Z,100231.31
2023-01-04T13:39:49.492Z,100230.10
2023-01-04T13:42:27.831Z,100237.92
2023-01-04T13:45:24.338Z,100230.60
2023-01-04T13:47:59.957Z,100226.45
2023-01-04T13:50:36.562Z,100216.41
2023-01-04T13:53:18.829Z,100208.67
2023-01-04T13:55:54.909Z,100209.79
2023-01-04T13:58:30.619Z,100216.33
2023-01-04T14:01:07.012Z,100214.19
2023-01-04T14:03:43.928Z,100216.30
2023-01-04T14:06:23.379Z,100210.71
2023-01-04T14:09:01.770Z,100204.75
2023-01-04T14:11:54.518Z,100203.48
2023-01-04T14:14:33.520Z,100201.27
2023-01-04T14:17:27.146Z,100193.02
2023-01-04T14:20:00.999Z,100196.38
2023-01-04T14:22:38.908Z,100187.02
2023-01-04T14:25:56.001Z,100182.73
2023-01-04T14:28:41.869Z,100171.98
2023-01-04T14:31:31.469Z,100170.86
2023-01-04T14:34:12.451Z,100160.59
2023-01-04T14:36:44.906Z,100149.09
2023-01-04T14:39:30.253Z,100147.23
2023-01-04T14:42:02.039Z,100139.69
2023-01-04T14:44:36.216Z,100137.17
2023-01-04T14:47:12.739Z,100136.80
2023-01-04T14:49:44.951Z,100121.89
2023-01-04T14:52:24.451Z,100117.70
2023-01-04T14:54:56.371Z,100108.04
2023-01-04T14:57:28.333Z,100099.66
2023-01-04T15:00:00.188Z,100093.95
2023-01-04T15:02:33.832Z,100091.56
2023-01-04T15:05:06.657Z,100094.77
2023-01-04T15:07:40.943Z,100083.24
2023-01-04T15:10:30.023Z,100075.73
2023-01-04T15:13:04.289Z,100073.21
2023-01-04T15:15:36.210Z,100063.66
2023-01-04T15:18:08.597Z,100061.52
2023-01-04T15:20:42.999Z,100049.64
2023-01-04T15:23:15.109Z,100046.80
2023-01-04T15:25:47.220Z,100051.43
2023-01-04T15:28:21.695Z,100041.11
2023-01-04T15:30:53.583Z,100056.19
2023-01-04T15:33:27.185Z,100044.67
2023-01-04T15:36:03.719Z,100045.39
2023-01-04T15:38:36.458Z,100043.77
2023-01-04T15:41:07.907Z,100044.27
2023-01-04T15:43:40.841Z,100039.05
2023-01-04T15:46:12.736Z,100028.50
2023-01-04T15:48:44.759Z,100028.53
2023-01-04T15:51:16.540Z,100017.05
2023-01-04T15:53:50.702Z,100018.45
2023-01-04T15:56:23.257Z,100019.99
2023-01-04T15:58:56.414Z,100012.06
2023-01-04T16:01:28.259Z,100004.33
2023-01-04T16:04:00.261Z,100002.20
2023-01-04T16:06:32.142Z,99996.21
2023-01-04T16:09:04.084Z,99984.25
2023-01-04T16:11:35.905Z,99983.11
2023-01-04T16:14:07.686Z,99977.53
2023-01-04T16:16:39.535Z,99977.15
2023-01-04T16:19:11.807Z,99977.29
2023-01-04T16:21:43.535Z,99965.73
2023-01-04T16:24:37.417Z,99964.25
2023-01-04T16:27:08.355Z,99965.70
2023-01-04T16:29:40.163Z,99961.23
2023-01-04T16:32:11.976Z,99956.14
2023-01-04T16:34:43.825Z,99958.30
2023-01-04T16:37:15.797Z,99954.20
2023-01-04T16:40:05.975Z,99954.08
2023-01-04T16:42:39.292Z,99953.39
2023-01-04T16:45:13.344Z,99948.61
2023-01-04T16:47:46.043Z,99939.77
2023-01-04T16:50:16.381Z,99933.80
2023-01-04T16:52:48.868Z,99928.77
2023-01-04T16:55:24.012Z,99925.64
2023-01-04T16:57:56.338Z,99928.02
2023-01-04T17:00:28.118Z,99922.95
2023-01-04T17:03:00.781Z,99920.38
2023-01-04T17:05:32.610Z,99920.52
2023-01-04T17:08:04.545Z,99918.10
2023-01-04T17:10:39.057Z,99913.31
2023-01-04T17:13:10.950Z,99906.64
2023-01-04T17:15:44.126Z,99915.17
2023-01-04T17:18:20.806Z,99905.31
2023-01-04T17:21:16.762Z,99900.23
2023-01-04T17:23:51.780Z,99900.33
2023-01-04T17:26:26.488Z,99891.81
2023-01-04T17:28:59.924Z,99887.88
2023-01-04T17:31:34.222Z,99893.29
2023-01-04T17:34:06.798Z,99886.66
2023-01-04T17:36:39.895Z,99886.78
2023-01-04T17:39:11.944Z,99889.10
2023-01-04T17:41:43.821Z,99876.66
2023-01-04T17:44:15.587Z,99871.19
2023-01-04T17:46:47.363Z,99870.67
2023-01-04T17:49:24.074Z,99867.83
2023-01-04T17:52:00.160Z,99858.17
2023-01-04T17:54:31.952Z,99853.64
2023-01-04T17:57:04.008Z,99849.00
2023-01-04T17:59:35.783Z,99852.20
2023-01-04T18:02:08.212Z,99842.99
2023-01-04T18:04:40.431Z,99836.48
2023-01-04T18:09:49.674Z,99834.61
2023-01-04T18:12:22.597Z,99824.70
2023-01-04T18:14:54.379Z,99822.64
2023-01-04T18:17:26.244Z,99820.27
2023-01-04T18:19:58.797Z,99825.73
2023-01-04T18:22:29.276Z,99820.12
2023-01-04T18:25:01.817Z,99810.58
2023-01-04T18:27:32.360Z,99815.59
2023-01-04T18:30:04.329Z,99802.79
2023-01-04T18:32:36.188Z,99800.95
2023-01-04T18:35:08.833Z,99803.59
2023-01-04T18:37:40.620Z,99794.02
2023-01-04T18:40:13.929Z,99789.60
2023-01-04T18:42:50.450Z,99788.36
2023-01-04T18:45:22.333Z,99782.39
2023-01-04T18:47:54.316Z,99777.52
2023-01-04T18:50:26.012Z,99762.86
2023-01-04T18:52:57.664Z,99753.63
2023-01-04T18:55:29.419Z,99756.85
2023-01-04T18:58:01.917Z,99754.95
2023-01-04T19:00:33.673Z,99749.55
2023-01-04T19:03:05.430Z,99745.83
2023-01-04T19:05:40.887Z,99753.84
2023-01-04T19:08:12.816Z,99753.74
2023-01-04T19:10:46.007Z,99749.27
2023-01-04T19:13:18.007Z,99741.80
2023-01-04T19:15:49.721Z,99739.94
2023-01-04T19:18:21.517Z,99739.54
2023-01-04T19:20:53.539Z,99736.12
2023-01-04T19:23:26.422Z,99726.30
2023-01-04T19:25:58.634Z,99730.18
2023-01-04T19:28:31.817Z,99734.25
2023-01-04T19:31:08.732Z,99725.43
2023-01-04T19:33:41.155Z,99714.79
2023-01-04T19:36:15.710Z,99720.03
2023-01-04T19:38:48.064Z,99715.74
2023-01-04T19:41:29.093Z,99714.50
2023-01-04T19:44:07.340Z,99710.08
2023-01-04T19:46:41.617Z,99708.76
2023-01-04T19:49:15.543Z,99689.49
2023-01-04T19:51:50.836Z,99684.66
2023-01-04T19:54:25.525Z,99687.67
2023-01-04T19:56:58.687Z,99678.50
2023-01-04T19:59:31.503Z,99678.69
2023-01-04T20:02:03.995Z,99673.64
2023-01-04T20:04:36.347Z,99673.00
2023-01-04T20:07:08.985Z,99671.98
2023-01-04T20:09:41.137Z,99667.77
2023-01-04T20:12:14.462Z,99674.07
2023-01-04T20:14:47.307Z,99672.32
2023-01-04T20:17:20.460Z,99659.02
2023-01-04T20:19:53.358Z,99654.67
2023-01-04T20:22:25.464Z,99655.84
2023-01-04T20:24:58.583Z,99655.96
2023-01-04T20:27:31.022Z,99653.15
2023-01-04T20:30:03.905Z,99653.96
2023-01-04T20:32:38.525Z,99649.21
2023-01-04T20:35:12.396Z,99651.46
2023-01-04T20:37:44.459Z,99646.76
2023-01-04T20:40:17.514Z,99640.02
2023-01-04T20:43:07.661Z,99637.08
2023-01-04T20:45:44.491Z,99639.38
2023-01-04T20:48:16.926Z,99637.36
2023-01-04T20:50:49.169Z,99637.34
2023-01-04T20:53:21.533Z,99633.11
2023-01-04T20:55:53.493Z,99633.06
2023-01-04T20:58:25.495Z,99625.15
2023-01-04T21:00:57.668Z,99626.08
2023-01-04T21:03:29.839Z,99634.18
2023-01-04T21:06:03.628Z,99626.72
2023-01-04T21:08:36.510Z,99621.62
2023-01-04T21:11:07.028Z,99622.50
2023-01-04T21:13:39.025Z,99617.56
2023-01-04T21:16:11.967Z,99609.19
2023-01-04T21:18:44.594Z,99608.48
2023-01-04T21:21:18.908Z,99603.17
2023-01-04T21:23:56.280Z,99595.17
2023-01-04T21:26:29.885Z,99595.69
2023-01-04T21:29:01.909Z,99592.99
2023-01-04T21:31:35.917Z,99596.00
2023-01-04T21:34:13.006Z,99587.27
2023-01-04T21:36:47.268Z,99580.36
2023-01-04T21:39:19.850Z,99578.21
2023-01-04T21:41:53.990Z,99582.11
2023-01-04T21:44:25.856Z,99575.86
2023-01-04T21:46:58.465Z,99567.67
2023-01-04T21:49:30.367Z,99568.94
2023-01-04T21:52:02.184Z,99566.64
2023-01-04T21:54:34.251Z,99560.90
2023-01-04T21:57:07.976Z,99550.92
2023-01-04T21:59:40.259Z,99545.09
2023-01-04T22:02:15.758Z,99547.91
2023-01-04T22:04:47.841Z,99536.94
2023-01-04T22:07:19.649Z,99529.67
2023-01-04T22:09:57.248Z,99521.20
2023-01-04T22:12:29.575Z,99514.70
2023-01-04T22:15:01.249Z,99515.06
2023-01-04T22:17:33.346Z,99518.28
2023-01-04T22:20:05.552Z,99520.23
2023-01-04T22:22:37.320Z,99513.75
2023-01-04T22:25:10.464Z,99511.71
2023-01-04T22:27:42.177Z,99511.27
2023-01-04T22:30:15.149Z,99505.05
2023-01-04T22:32:47.558Z,99505.31
2023-01-04T22:35:20.040Z,99507.85
2023-01-04T22:37:51.861Z,99504.86
2023-01-04T22:40:23.663Z,99504.00
2023-01-04T22:42:55.395Z,99500.30
2023-01-04T22:45:27.156Z,99505.58
2023-01-04T22:47:58.878Z,99502.25
2023-01-04T22:50:30.686Z,99504.33
2023-01-04T22:53:02.377Z,99506.79
2023-01-04T22:55:59.903Z,99510.34
2023-01-04T22:58:25.945Z,99515.81
2023-01-04T23:00:57.744Z,99508.47
2023-01-04T23:03:30.304Z,99512.02
2023-01-04T23:06:05.134Z,99512.35
2023-01-04T23:08:38.515Z,99509.78
2023-01-04T23:11:13.088Z,99504.66
2023-01-04T23:13:45.165Z,99505.38
2023-01-04T23:16:18.362Z,99503.05
2023-01-04T23:18:50.237Z,99495.13
2023-01-04T23:21:21.979Z,99490.36
2023-01-04T23:23:53.781Z,99487.72
2023-01-04T23:26:27.679Z,99486.84
2023-01-04T23:29:00.241Z,99488.63
2023-01-04T23:31:33.909Z,99477.20
2023-01-04T23:34:07.899Z,99480.21
2023-01-04T23:36:42.051Z,99476.14
2023-01-04T23:39:15.992Z,99477.59
2023-01-04T23:41:48.117Z,99475.36
2023-01-04T23:46:56.560Z,99475.89
2023-01-04T23:49:30.722Z,99475.19
2023-01-04T23:52:03.462Z,99467.54
2023-01-04T23:54:35.914Z,99466.01
2023-01-04T23:57:07.600Z,99456.66
2023-01-04T23:59:39.576Z,99456.46
